Terminal Aerodrome Forecast
Issued by NWS

Home | Current Version | Previous Version | Text Only | Print | Product List | Glossary On
Versions: 1 2 3 4 5 6 7 8 9 10 11 12 13 14 15 16 17 18 19 20 21 22 23 24 25 26 27
000
FTUS41 KCTP 232130 AAA
TAFJST
TAF AMD
KJST 232130Z 2322/2418 14014G24KT P6SM -SHRA OVC015 WS020/15040KT
     FM240300 18017KT 4SM -RA OVC025
     FM241000 21007KT 5SM BR OVC001
     FM241500 20009KT P6SM BKN050=

USA.gov is the U.S. government's official web portal to all federal, state and local government web resources and services.